createdAt,value
2018-05-01T00:04:48.680Z,100237.73
2018-05-01T00:09:51.151Z,100252.16
2018-05-01T00:14:53.730Z,100265.81
2018-05-01T00:19:56.319Z,100248.75
2018-05-01T00:24:58.886Z,100250.45
2018-05-01T00:30:01.692Z,100254.39
2018-05-01T00:35:04.141Z,100271.97
2018-05-01T00:40:06.612Z,100267.00
2018-05-01T00:45:09.098Z,100278.09
2018-05-01T00:50:11.557Z,100280.11
2018-05-01T00:55:14.034Z,100275.58
2018-05-01T01:00:16.612Z,100267.09
2018-05-01T01:05:19.075Z,100261.73
2018-05-01T01:10:21.553Z,100263.11
2018-05-01T01:15:24.068Z,100272.86
2018-05-01T01:20:26.543Z,100278.42
2018-05-01T01:25:29.137Z,100256.78
2018-05-01T01:30:31.614Z,100253.18
2018-05-01T01:35:33.546Z,100259.29
2018-05-01T01:40:35.496Z,100257.38
2018-05-01T01:45:37.453Z,100253.44
2018-05-01T01:50:39.378Z,100268.13
2018-05-01T01:55:42.008Z,100268.89
2018-05-01T02:00:43.980Z,100269.20
2018-05-01T02:05:45.922Z,100269.11
2018-05-01T02:10:47.884Z,100269.75
2018-05-01T02:15:49.849Z,100273.25
2018-05-01T02:20:51.839Z,100271.66
2018-05-01T02:25:53.842Z,100271.13
2018-05-01T02:30:55.776Z,100259.16
2018-05-01T02:35:57.727Z,100253.64
2018-05-01T02:40:59.667Z,100261.13
2018-05-01T02:46:01.600Z,100260.61
2018-05-01T02:51:03.524Z,100267.64
2018-05-01T02:56:05.452Z,100265.44
2018-05-01T03:01:07.388Z,100263.11
2018-05-01T03:06:09.322Z,100262.88
2018-05-01T03:11:11.239Z,100268.16
2018-05-01T03:16:13.170Z,100271.15
2018-05-01T03:21:15.109Z,100302.73
2018-05-01T03:26:17.054Z,100297.25
2018-05-01T03:31:18.977Z,100298.72
2018-05-01T03:36:20.969Z,100305.66
2018-05-01T03:41:22.944Z,100313.25
2018-05-01T03:46:25.010Z,100301.95
2018-05-01T03:51:26.977Z,100315.09
2018-05-01T03:56:28.957Z,100321.84
2018-05-01T04:01:30.877Z,100323.72
2018-05-01T04:06:32.809Z,100321.91
2018-05-01T04:11:34.759Z,100326.95
2018-05-01T04:16:36.694Z,100336.75
2018-05-01T04:21:38.615Z,100351.44
2018-05-01T04:26:40.572Z,100348.05
2018-05-01T04:31:42.506Z,100362.62
2018-05-01T04:36:44.493Z,100372.27
2018-05-01T04:41:46.426Z,100379.58
2018-05-01T04:46:48.349Z,100380.52
2018-05-01T04:51:50.602Z,100377.74
2018-05-01T04:56:52.522Z,100373.81
2018-05-01T05:01:54.520Z,100382.07
2018-05-01T05:06:56.522Z,100385.96
2018-05-01T05:11:58.498Z,100382.87
2018-05-01T05:17:00.433Z,100387.27
2018-05-01T05:22:02.404Z,100390.59
2018-05-01T05:27:04.336Z,100388.52
2018-05-01T05:32:06.269Z,100370.81
2018-05-01T05:37:08.309Z,100371.69
2018-05-01T05:42:10.245Z,100364.12
2018-05-01T05:47:12.175Z,100373.19
2018-05-01T05:52:14.112Z,100389.03
2018-05-01T05:57:16.078Z,100406.73
2018-05-01T06:02:18.094Z,100407.91
2018-05-01T06:07:20.057Z,100403.09
2018-05-01T06:12:22.028Z,100412.48
2018-05-01T06:17:24.021Z,100413.18
2018-05-01T06:22:26.859Z,100410.23
2018-05-01T06:27:28.852Z,100410.89
2018-05-01T06:32:30.801Z,100423.63
2018-05-01T06:37:32.772Z,100423.92
2018-05-01T06:42:34.652Z,100439.70
2018-05-01T06:47:36.586Z,100434.29
2018-05-01T06:52:38.513Z,100439.88
2018-05-01T06:57:40.439Z,100459.56
2018-05-01T07:02:42.349Z,100468.58
2018-05-01T07:07:44.370Z,100484.03
2018-05-01T07:12:46.282Z,100503.12
2018-05-01T07:17:48.184Z,100488.90
2018-05-01T07:22:50.942Z,100486.84
2018-05-01T07:27:52.926Z,100476.39
2018-05-01T07:32:54.916Z,100485.14
2018-05-01T07:37:56.875Z,100470.52
2018-05-01T07:42:58.912Z,100474.67
2018-05-01T07:48:00.859Z,100481.38
2018-05-01T07:53:02.789Z,100485.14
2018-05-01T07:58:04.803Z,100486.83
2018-05-01T08:03:06.711Z,100492.45
2018-05-01T08:08:08.652Z,100486.86
2018-05-01T08:13:10.721Z,100496.59
2018-05-01T08:18:12.642Z,100521.39
2018-05-01T08:23:14.572Z,100527.42
2018-05-01T08:28:16.508Z,100526.07
2018-05-01T08:33:18.564Z,100530.25
2018-05-01T08:38:20.720Z,100526.81
2018-05-01T08:43:22.676Z,100528.87
2018-05-01T08:48:24.666Z,100527.28
2018-05-01T08:53:26.630Z,100535.65
2018-05-01T08:58:28.582Z,100546.56
2018-05-01T09:03:30.551Z,100545.77
2018-05-01T09:08:32.556Z,100562.78
2018-05-01T09:13:34.599Z,100545.02
2018-05-01T09:18:36.543Z,100553.28
2018-05-01T09:23:38.581Z,100541.45
2018-05-01T09:28:40.495Z,100537.73
2018-05-01T09:33:42.403Z,100562.05
2018-05-01T09:38:44.334Z,100563.25
2018-05-01T09:43:46.343Z,100571.79
2018-05-01T09:48:48.265Z,100582.70
2018-05-01T09:53:50.754Z,100581.89
2018-05-01T09:58:53.319Z,100569.34
2018-05-01T10:03:55.791Z,100581.09
2018-05-01T10:08:58.256Z,100581.72
2018-05-01T10:14:00.739Z,100577.03
2018-05-01T10:19:03.254Z,100585.47
2018-05-01T10:24:05.708Z,100583.20
2018-05-01T10:29:08.161Z,100586.67
2018-05-01T10:34:10.633Z,100584.08
2018-05-01T10:39:13.119Z,100583.95
2018-05-01T10:44:15.687Z,100589.66
2018-05-01T10:49:18.153Z,100585.36
2018-05-01T10:54:20.618Z,100587.39
2018-05-01T10:59:23.098Z,100595.37
2018-05-01T11:04:31.938Z,100582.22
2018-05-01T11:09:39.022Z,100598.09
2018-05-01T11:14:41.899Z,100603.46
2018-05-01T11:19:44.525Z,100599.49
2018-05-01T11:24:46.986Z,100601.98
2018-05-01T11:29:49.439Z,100615.33
2018-05-01T11:34:51.924Z,100623.63
2018-05-01T11:39:54.418Z,100631.30
2018-05-01T11:44:57.420Z,100638.80
2018-05-01T11:50:00.110Z,100646.34
2018-05-01T11:55:02.707Z,100656.22
2018-05-01T12:00:05.192Z,100677.30
2018-05-01T12:05:08.134Z,100688.28
2018-05-01T12:10:10.928Z,100683.30
2018-05-01T12:15:13.391Z,100688.37
2018-05-01T12:20:15.839Z,100698.72
2018-05-01T12:25:18.404Z,100706.15
2018-05-01T12:30:20.911Z,100714.08
2018-05-01T12:35:23.424Z,100720.30
2018-05-01T12:40:25.922Z,100718.02
2018-05-01T12:45:28.754Z,100710.23
2018-05-01T12:50:31.258Z,100720.48
2018-05-01T12:55:33.721Z,100709.22
2018-05-01T13:00:36.196Z,100724.02
2018-05-01T13:05:38.738Z,100729.05
2018-05-01T13:10:41.188Z,100715.25
2018-05-01T13:15:43.720Z,100725.19
2018-05-01T13:20:46.190Z,100715.16
2018-05-01T13:25:48.660Z,100717.51
2018-05-01T13:30:51.119Z,100721.22
2018-05-01T13:35:53.598Z,100719.41
2018-05-01T13:40:56.127Z,100722.64
2018-05-01T13:45:58.614Z,100731.44
2018-05-01T13:51:01.079Z,100731.87
2018-05-01T13:56:03.535Z,100734.22
2018-05-01T14:01:06.012Z,100739.28
2018-05-01T14:06:08.484Z,100737.11
2018-05-01T14:11:10.938Z,100745.55
2018-05-01T14:16:13.425Z,100729.72
2018-05-01T14:21:15.882Z,100735.20
2018-05-01T14:26:18.353Z,100742.47
2018-05-01T14:31:20.826Z,100765.02
2018-05-01T14:36:23.311Z,100776.95
2018-05-01T14:41:25.788Z,100791.92
2018-05-01T14:46:28.462Z,100795.73
2018-05-01T14:51:31.628Z,100778.38
2018-05-01T14:56:34.253Z,100792.02
2018-05-01T15:01:36.949Z,100801.61
2018-05-01T15:06:39.506Z,100795.67
2018-05-01T15:11:41.984Z,100799.09
2018-05-01T15:16:44.456Z,100810.39
2018-05-01T15:21:46.903Z,100808.01
2018-05-01T15:26:49.389Z,100797.64
2018-05-01T15:31:51.863Z,100796.02
2018-05-01T15:36:54.339Z,100794.09
2018-05-01T15:41:56.847Z,100793.40
2018-05-01T15:46:59.356Z,100796.42
2018-05-01T15:52:01.829Z,100799.77
2018-05-01T15:57:04.286Z,100809.63
2018-05-01T16:02:06.742Z,100814.00
2018-05-01T16:07:09.200Z,100800.16
2018-05-01T16:12:11.676Z,100788.83
2018-05-01T16:17:15.372Z,100789.48
2018-05-01T16:22:17.837Z,100800.38
2018-05-01T16:27:23.249Z,100795.52
2018-05-01T16:32:25.725Z,100786.22
2018-05-01T16:37:28.218Z,100793.77
2018-05-01T16:42:31.136Z,100796.14
2018-05-01T16:47:33.618Z,100810.67
2018-05-01T16:52:46.606Z,100817.80
2018-05-01T16:57:58.015Z,100819.33
2018-05-01T17:03:00.868Z,100821.10
2018-05-01T17:08:03.369Z,100817.92
2018-05-01T17:13:05.824Z,100825.66
2018-05-01T17:18:08.513Z,100828.84
2018-05-01T17:23:10.970Z,100838.62
2018-05-01T17:28:13.446Z,100836.20
2018-05-01T17:33:15.915Z,100857.58
2018-05-01T17:38:18.403Z,100854.22
2018-05-01T17:43:20.947Z,100859.64
2018-05-01T17:48:23.433Z,100863.56
2018-05-01T17:53:25.921Z,100871.47
2018-05-01T17:58:28.402Z,100879.20
2018-05-01T18:03:30.948Z,100879.12
2018-05-01T18:08:33.420Z,100888.03
2018-05-01T18:13:35.990Z,100891.25
2018-05-01T18:18:38.440Z,100902.27
2018-05-01T18:23:40.923Z,100912.52
2018-05-01T18:28:43.371Z,100919.98
2018-05-01T18:33:45.973Z,100921.89
2018-05-01T18:38:48.461Z,100931.30
2018-05-01T18:43:50.932Z,100937.39
2018-05-01T18:48:54.040Z,100947.19
2018-05-01T18:53:56.572Z,100947.17
2018-05-01T18:59:00.474Z,100952.04
2018-05-01T19:04:03.167Z,100964.12
2018-05-01T19:09:06.581Z,100976.32
2018-05-01T19:14:10.866Z,100988.59
2018-05-01T19:19:13.376Z,101001.89
2018-05-01T19:29:43.171Z,101007.73
2018-05-01T19:34:45.672Z,101009.14
2018-05-01T19:39:48.197Z,101017.15
2018-05-01T19:44:50.751Z,101026.55
2018-05-01T19:49:53.249Z,101034.79
2018-05-01T19:54:55.821Z,101060.07
2018-05-01T19:59:58.348Z,101065.43
2018-05-01T20:05:00.866Z,101064.91
2018-05-01T20:10:03.356Z,101062.75
2018-05-01T20:15:05.776Z,101068.48
2018-05-01T20:20:08.239Z,101069.38
2018-05-01T20:25:10.749Z,101079.07
2018-05-01T20:30:13.214Z,101070.19
2018-05-01T20:35:16.224Z,101072.52
2018-05-01T20:40:18.822Z,101070.11
2018-05-01T20:45:21.325Z,101065.07
2018-05-01T20:50:26.755Z,101070.72
2018-05-01T20:55:31.409Z,101070.14
2018-05-01T21:00:34.037Z,101077.05
2018-05-01T21:05:36.518Z,101081.30
2018-05-01T21:10:39.215Z,101084.19
2018-05-01T21:15:41.777Z,101095.02
2018-05-01T21:20:44.237Z,101102.00
2018-05-01T21:25:46.698Z,101102.91
2018-05-01T21:30:49.161Z,101109.61
2018-05-01T21:35:51.620Z,101107.87
2018-05-01T21:40:54.077Z,101126.13
2018-05-01T21:45:56.701Z,101136.55
2018-05-01T21:50:59.148Z,101141.76
2018-05-01T21:56:01.727Z,101149.61
2018-05-01T22:01:04.219Z,101154.81
2018-05-01T22:06:06.691Z,101174.30
2018-05-01T22:11:09.210Z,101187.06
2018-05-01T22:16:11.705Z,101197.60
2018-05-01T22:21:14.172Z,101200.66
2018-05-01T22:26:16.736Z,101206.25
2018-05-01T22:31:19.185Z,101216.29
2018-05-01T22:36:21.677Z,101209.72
2018-05-01T22:41:24.118Z,101213.37
2018-05-01T22:46:26.627Z,101211.61
2018-05-01T22:51:29.206Z,101224.95
2018-05-01T22:56:31.671Z,101234.34
2018-05-01T23:01:34.175Z,101231.42
2018-05-01T23:06:37.585Z,101240.75
2018-05-01T23:11:40.056Z,101248.63
2018-05-01T23:16:42.637Z,101242.24
2018-05-01T23:21:45.078Z,101227.47
2018-05-01T23:26:47.545Z,101238.34
2018-05-01T23:31:50.022Z,101251.91
2018-05-01T23:36:52.527Z,101261.14
2018-05-01T23:41:54.985Z,101273.09
2018-05-01T23:46:57.445Z,101266.52
2018-05-01T23:51:59.921Z,101255.80
2018-05-01T23:57:02.420Z,101253.77
